sensor_id;sensor_type;location;lat;lon;timestamp;temperature;humidity
5743;DHT22;2896;53.500;10.020;2024-03-29T00:00:26;7.00;99.90
5743;DHT22;2896;53.500;10.020;2024-03-29T00:02:51;7.00;99.90
5743;DHT22;2896;53.500;10.020;2024-03-29T00:05:17;7.00;99.90
5743;DHT22;2896;53.500;10.020;2024-03-29T00:07:43;6.90;99.90
5743;DHT22;2896;53.500;10.020;2024-03-29T00:10:10;6.90;99.90
5743;DHT22;2896;53.500;10.020;2024-03-29T00:12:36;6.90;99.90
5743;DHT22;2896;53.500;10.020;2024-03-29T00:15:02;6.90;99.90
5743;DHT22;2896;53.500;10.020;2024-03-29T00:17:28;6.80;99.90
5743;DHT22;2896;53.500;10.020;2024-03-29T00:19:53;6.80;99.90
5743;DHT22;2896;53.500;10.020;2024-03-29T00:22:19;6.70;99.90
5743;DHT22;2896;53.500;10.020;2024-03-29T00:24:45;6.70;99.90
5743;DHT22;2896;53.500;10.020;2024-03-29T00:27:12;6.60;99.90
5743;DHT22;2896;53.500;10.020;2024-03-29T00:29:38;6.60;99.90
5743;DHT22;2896;53.500;10.020;2024-03-29T00:32:04;6.70;99.90
5743;DHT22;2896;53.500;10.020;2024-03-29T00:34:30;6.70;99.90
5743;DHT22;2896;53.500;10.020;2024-03-29T00:36:56;6.70;99.90
5743;DHT22;2896;53.500;10.020;2024-03-29T00:39:22;6.70;99.90
5743;DHT22;2896;53.500;10.020;2024-03-29T00:41:48;6.60;99.90
5743;DHT22;2896;53.500;10.020;2024-03-29T00:44:15;6.60;99.90
5743;DHT22;2896;53.500;10.020;2024-03-29T00:46:40;6.60;99.90
5743;DHT22;2896;53.500;10.020;2024-03-29T00:49:06;6.50;99.90
5743;DHT22;2896;53.500;10.020;2024-03-29T00:51:32;6.50;99.90
5743;DHT22;2896;53.500;10.020;2024-03-29T00:53:58;6.40;99.90
5743;DHT22;2896;53.500;10.020;2024-03-29T00:56:23;6.40;99.90
5743;DHT22;2896;53.500;10.020;2024-03-29T00:58:49;6.40;99.90
5743;DHT22;2896;53.500;10.020;2024-03-29T01:01:16;6.30;99.90
5743;DHT22;2896;53.500;10.020;2024-03-29T01:03:42;6.30;99.90
5743;DHT22;2896;53.500;10.020;2024-03-29T01:06:08;6.30;99.90
5743;DHT22;2896;53.500;10.020;2024-03-29T01:08:33;6.30;99.90
5743;DHT22;2896;53.500;10.020;2024-03-29T01:10:59;6.20;99.90
5743;DHT22;2896;53.500;10.020;2024-03-29T01:13:25;6.10;99.90
5743;DHT22;2896;53.500;10.020;2024-03-29T01:15:51;6.00;99.90
5743;DHT22;2896;53.500;10.020;2024-03-29T01:18:18;6.00;99.90
5743;DHT22;2896;53.500;10.020;2024-03-29T01:20:43;6.00;99.90
5743;DHT22;2896;53.500;10.020;2024-03-29T01:23:09;6.00;99.90
5743;DHT22;2896;53.500;10.020;2024-03-29T01:25:35;6.00;99.90
5743;DHT22;2896;53.500;10.020;2024-03-29T01:28:01;5.90;99.90
5743;DHT22;2896;53.500;10.020;2024-03-29T01:30:26;5.90;99.90
5743;DHT22;2896;53.500;10.020;2024-03-29T01:32:52;5.90;99.90
5743;DHT22;2896;53.500;10.020;2024-03-29T01:35:19;5.90;99.90
5743;DHT22;2896;53.500;10.020;2024-03-29T01:37:45;6.00;99.90
5743;DHT22;2896;53.500;10.020;2024-03-29T01:40:11;6.00;99.90
5743;DHT22;2896;53.500;10.020;2024-03-29T01:42:37;6.00;99.90
5743;DHT22;2896;53.500;10.020;2024-03-29T01:45:04;5.90;99.90
5743;DHT22;2896;53.500;10.020;2024-03-29T01:47:30;5.90;99.90
5743;DHT22;2896;53.500;10.020;2024-03-29T01:49:57;6.00;99.90
5743;DHT22;2896;53.500;10.020;2024-03-29T01:52:27;5.90;99.90
5743;DHT22;2896;53.500;10.020;2024-03-29T01:54:54;5.90;99.90
5743;DHT22;2896;53.500;10.020;2024-03-29T01:57:21;6.00;99.90
5743;DHT22;2896;53.500;10.020;2024-03-29T01:59:48;5.90;99.90
5743;DHT22;2896;53.500;10.020;2024-03-29T02:02:15;5.90;99.90
5743;DHT22;2896;53.500;10.020;2024-03-29T02:04:42;6.00;99.90
5743;DHT22;2896;53.500;10.020;2024-03-29T02:07:09;6.00;99.90
5743;DHT22;2896;53.500;10.020;2024-03-29T02:09:37;6.00;99.90
5743;DHT22;2896;53.500;10.020;2024-03-29T02:12:04;5.90;99.90
5743;DHT22;2896;53.500;10.020;2024-03-29T02:14:31;5.90;99.90
5743;DHT22;2896;53.500;10.020;2024-03-29T02:16:57;5.90;99.90
5743;DHT22;2896;53.500;10.020;2024-03-29T02:19:24;5.80;99.90
5743;DHT22;2896;53.500;10.020;2024-03-29T02:21:54;5.70;99.90
5743;DHT22;2896;53.500;10.020;2024-03-29T02:24:27;5.70;99.90
5743;DHT22;2896;53.500;10.020;2024-03-29T02:26:54;5.70;99.90
5743;DHT22;2896;53.500;10.020;2024-03-29T02:29:21;5.60;99.90
5743;DHT22;2896;53.500;10.020;2024-03-29T02:34:15;5.50;99.90
5743;DHT22;2896;53.500;10.020;2024-03-29T02:36:41;5.50;99.90
5743;DHT22;2896;53.500;10.020;2024-03-29T02:39:09;5.50;99.90
5743;DHT22;2896;53.500;10.020;2024-03-29T02:41:37;5.60;99.90
5743;DHT22;2896;53.500;10.020;2024-03-29T02:44:03;5.50;99.90
5743;DHT22;2896;53.500;10.020;2024-03-29T02:46:29;5.60;99.90
5743;DHT22;2896;53.500;10.020;2024-03-29T02:48:56;5.50;99.90
5743;DHT22;2896;53.500;10.020;2024-03-29T02:51:21;5.50;99.90
5743;DHT22;2896;53.500;10.020;2024-03-29T02:58:47;5.40;99.90
5743;DHT22;2896;53.500;10.020;2024-03-29T03:01:13;5.40;99.90
5743;DHT22;2896;53.500;10.020;2024-03-29T03:03:40;5.30;99.90
5743;DHT22;2896;53.500;10.020;2024-03-29T03:06:05;5.20;99.90
5743;DHT22;2896;53.500;10.020;2024-03-29T03:08:32;5.10;99.90
5743;DHT22;2896;53.500;10.020;2024-03-29T03:13:43;5.10;99.90
5743;DHT22;2896;53.500;10.020;2024-03-29T03:16:11;5.10;99.90
5743;DHT22;2896;53.500;10.020;2024-03-29T03:18:38;5.10;99.90
5743;DHT22;2896;53.500;10.020;2024-03-29T03:21:04;5.10;99.90
5743;DHT22;2896;53.500;10.020;2024-03-29T03:23:30;5.10;99.90
5743;DHT22;2896;53.500;10.020;2024-03-29T03:25:57;5.10;99.90
5743;DHT22;2896;53.500;10.020;2024-03-29T03:28:24;5.00;99.90
5743;DHT22;2896;53.500;10.020;2024-03-29T03:30:52;5.00;99.90
5743;DHT22;2896;53.500;10.020;2024-03-29T03:33:19;5.00;99.90
5743;DHT22;2896;53.500;10.020;2024-03-29T03:35:47;5.00;99.90
5743;DHT22;2896;53.500;10.020;2024-03-29T03:38:13;5.00;99.90
5743;DHT22;2896;53.500;10.020;2024-03-29T03:40:40;4.90;99.90
5743;DHT22;2896;53.500;10.020;2024-03-29T03:43:07;4.90;99.90
5743;DHT22;2896;53.500;10.020;2024-03-29T03:45:34;4.80;99.90
5743;DHT22;2896;53.500;10.020;2024-03-29T03:48:00;4.80;99.90
5743;DHT22;2896;53.500;10.020;2024-03-29T03:50:28;4.80;99.90
5743;DHT22;2896;53.500;10.020;2024-03-29T03:52:53;5.00;99.90
5743;DHT22;2896;53.500;10.020;2024-03-29T03:55:20;5.00;99.90
5743;DHT22;2896;53.500;10.020;2024-03-29T03:57:46;5.00;99.90
5743;DHT22;2896;53.500;10.020;2024-03-29T04:00:13;4.90;99.90
5743;DHT22;2896;53.500;10.020;2024-03-29T04:02:39;4.90;99.90
5743;DHT22;2896;53.500;10.020;2024-03-29T04:05:07;5.00;99.90
5743;DHT22;2896;53.500;10.020;2024-03-29T04:07:34;5.00;99.90
5743;DHT22;2896;53.500;10.020;2024-03-29T04:10:00;5.00;99.90
5743;DHT22;2896;53.500;10.020;2024-03-29T04:12:26;5.00;99.90
5743;DHT22;2896;53.500;10.020;2024-03-29T04:14:53;5.10;99.90
5743;DHT22;2896;53.500;10.020;2024-03-29T04:17:18;5.10;99.90
5743;DHT22;2896;53.500;10.020;2024-03-29T04:19:45;5.10;99.90
5743;DHT22;2896;53.500;10.020;2024-03-29T04:22:11;5.20;99.90
5743;DHT22;2896;53.500;10.020;2024-03-29T04:24:39;5.20;99.90
5743;DHT22;2896;53.500;10.020;2024-03-29T04:27:04;5.30;99.90
5743;DHT22;2896;53.500;10.020;2024-03-29T04:29:31;5.40;99.90
5743;DHT22;2896;53.500;10.020;2024-03-29T04:31:57;5.40;99.90
5743;DHT22;2896;53.500;10.020;2024-03-29T04:34:23;5.30;99.90
5743;DHT22;2896;53.500;10.020;2024-03-29T04:36:49;5.40;99.90
5743;DHT22;2896;53.500;10.020;2024-03-29T04:39:16;5.90;99.90
5743;DHT22;2896;53.500;10.020;2024-03-29T04:41:44;5.40;99.90
5743;DHT22;2896;53.500;10.020;2024-03-29T04:44:12;5.40;99.90
5743;DHT22;2896;53.500;10.020;2024-03-29T04:46:39;5.50;99.90
5743;DHT22;2896;53.500;10.020;2024-03-29T04:49:06;5.60;99.90
5743;DHT22;2896;53.500;10.020;2024-03-29T04:51:33;5.50;99.90
5743;DHT22;2896;53.500;10.020;2024-03-29T04:53:59;5.70;99.90
5743;DHT22;2896;53.500;10.020;2024-03-29T04:56:26;5.80;99.90
5743;DHT22;2896;53.500;10.020;2024-03-29T04:58:54;5.80;99.90
5743;DHT22;2896;53.500;10.020;2024-03-29T05:01:21;5.80;99.90
5743;DHT22;2896;53.500;10.020;2024-03-29T05:03:47;5.90;99.90
5743;DHT22;2896;53.500;10.020;2024-03-29T05:06:14;5.90;99.90
5743;DHT22;2896;53.500;10.020;2024-03-29T05:08:41;5.90;99.90
5743;DHT22;2896;53.500;10.020;2024-03-29T05:11:07;5.90;99.90
5743;DHT22;2896;53.500;10.020;2024-03-29T05:13:36;5.90;99.90
5743;DHT22;2896;53.500;10.020;2024-03-29T05:16:05;5.90;99.90
5743;DHT22;2896;53.500;10.020;2024-03-29T05:18:32;6.00;99.90
5743;DHT22;2896;53.500;10.020;2024-03-29T05:20:59;6.10;99.90
5743;DHT22;2896;53.500;10.020;2024-03-29T05:23:25;6.00;99.90
5743;DHT22;2896;53.500;10.020;2024-03-29T05:25:52;6.10;99.90
5743;DHT22;2896;53.500;10.020;2024-03-29T05:28:19;6.00;99.90
5743;DHT22;2896;53.500;10.020;2024-03-29T05:30:46;7.30;99.90
5743;DHT22;2896;53.500;10.020;2024-03-29T05:33:14;6.10;99.90
5743;DHT22;2896;53.500;10.020;2024-03-29T05:35:42;6.20;99.90
5743;DHT22;2896;53.500;10.020;2024-03-29T05:38:08;6.20;99.90
5743;DHT22;2896;53.500;10.020;2024-03-29T05:40:35;6.20;99.90
5743;DHT22;2896;53.500;10.020;2024-03-29T05:43:03;6.20;99.90
5743;DHT22;2896;53.500;10.020;2024-03-29T05:45:30;6.20;99.90
5743;DHT22;2896;53.500;10.020;2024-03-29T05:47:58;6.50;99.90
5743;DHT22;2896;53.500;10.020;2024-03-29T05:50:26;6.30;99.90
5743;DHT22;2896;53.500;10.020;2024-03-29T05:52:53;6.30;99.90
5743;DHT22;2896;53.500;10.020;2024-03-29T05:55:20;6.40;99.90
5743;DHT22;2896;53.500;10.020;2024-03-29T05:57:46;6.50;99.90
5743;DHT22;2896;53.500;10.020;2024-03-29T06:00:14;6.50;99.90
5743;DHT22;2896;53.500;10.020;2024-03-29T06:02:41;6.50;99.90
5743;DHT22;2896;53.500;10.020;2024-03-29T06:05:08;6.50;99.90
5743;DHT22;2896;53.500;10.020;2024-03-29T06:07:36;6.50;99.90
5743;DHT22;2896;53.500;10.020;2024-03-29T06:10:03;6.50;99.90
5743;DHT22;2896;53.500;10.020;2024-03-29T06:12:31;6.60;99.90
5743;DHT22;2896;53.500;10.020;2024-03-29T06:14:58;6.60;99.90
5743;DHT22;2896;53.500;10.020;2024-03-29T06:17:43;6.70;99.90
5743;DHT22;2896;53.500;10.020;2024-03-29T06:20:10;6.70;99.90
5743;DHT22;2896;53.500;10.020;2024-03-29T06:22:38;6.70;99.90
5743;DHT22;2896;53.500;10.020;2024-03-29T06:25:05;6.80;99.90
5743;DHT22;2896;53.500;10.020;2024-03-29T06:27:32;6.80;99.90
5743;DHT22;2896;53.500;10.020;2024-03-29T06:29:59;6.90;99.90
5743;DHT22;2896;53.500;10.020;2024-03-29T06:32:26;6.90;99.90
5743;DHT22;2896;53.500;10.020;2024-03-29T06:34:52;7.00;99.90
5743;DHT22;2896;53.500;10.020;2024-03-29T06:37:19;7.00;99.90
5743;DHT22;2896;53.500;10.020;2024-03-29T06:39:48;7.10;99.90
5743;DHT22;2896;53.500;10.020;2024-03-29T06:42:15;7.10;99.90
5743;DHT22;2896;53.500;10.020;2024-03-29T06:44:41;7.10;99.90
5743;DHT22;2896;53.500;10.020;2024-03-29T06:47:09;7.20;99.90
5743;DHT22;2896;53.500;10.020;2024-03-29T06:49:36;7.20;99.90
5743;DHT22;2896;53.500;10.020;2024-03-29T06:52:03;7.30;99.90
5743;DHT22;2896;53.500;10.020;2024-03-29T06:54:30;7.20;99.90
5743;DHT22;2896;53.500;10.020;2024-03-29T06:56:59;7.30;99.90
5743;DHT22;2896;53.500;10.020;2024-03-29T06:59:27;7.30;99.90
5743;DHT22;2896;53.500;10.020;2024-03-29T07:01:54;7.40;99.90
5743;DHT22;2896;53.500;10.020;2024-03-29T07:04:21;7.50;99.90
5743;DHT22;2896;53.500;10.020;2024-03-29T07:06:48;7.60;99.90
5743;DHT22;2896;53.500;10.020;2024-03-29T07:09:17;7.60;99.90
5743;DHT22;2896;53.500;10.020;2024-03-29T07:11:45;7.60;99.90
5743;DHT22;2896;53.500;10.020;2024-03-29T07:14:13;7.80;99.90
5743;DHT22;2896;53.500;10.020;2024-03-29T07:16:40;7.90;99.90
5743;DHT22;2896;53.500;10.020;2024-03-29T07:19:06;8.00;99.90
5743;DHT22;2896;53.500;10.020;2024-03-29T07:21:33;8.10;99.90
5743;DHT22;2896;53.500;10.020;2024-03-29T07:23:59;8.20;99.90
5743;DHT22;2896;53.500;10.020;2024-03-29T07:26:26;8.30;99.90
5743;DHT22;2896;53.500;10.020;2024-03-29T07:28:53;8.40;99.90
5743;DHT22;2896;53.500;10.020;2024-03-29T07:31:20;8.50;99.90
5743;DHT22;2896;53.500;10.020;2024-03-29T07:33:47;8.50;99.90
5743;DHT22;2896;53.500;10.020;2024-03-29T07:36:14;8.60;99.90
5743;DHT22;2896;53.500;10.020;2024-03-29T07:38:42;8.70;99.90
5743;DHT22;2896;53.500;10.020;2024-03-29T07:41:08;8.70;99.90
5743;DHT22;2896;53.500;10.020;2024-03-29T07:43:39;8.80;99.90
5743;DHT22;2896;53.500;10.020;2024-03-29T07:46:06;8.90;99.90
5743;DHT22;2896;53.500;10.020;2024-03-29T07:48:35;8.90;99.90
5743;DHT22;2896;53.500;10.020;2024-03-29T07:51:02;8.90;99.90
5743;DHT22;2896;53.500;10.020;2024-03-29T07:53:29;8.90;99.90
5743;DHT22;2896;53.500;10.020;2024-03-29T07:55:55;9.00;99.90
5743;DHT22;2896;53.500;10.020;2024-03-29T07:58:22;9.10;99.90
5743;DHT22;2896;53.500;10.020;2024-03-29T08:00:49;9.10;99.90
5743;DHT22;2896;53.500;10.020;2024-03-29T08:03:16;9.20;99.90
5743;DHT22;2896;53.500;10.020;2024-03-29T08:05:55;9.20;99.90
5743;DHT22;2896;53.500;10.020;2024-03-29T08:08:22;9.20;99.90
5743;DHT22;2896;53.500;10.020;2024-03-29T08:10:50;9.30;99.90
5743;DHT22;2896;53.500;10.020;2024-03-29T08:13:17;9.30;99.90
5743;DHT22;2896;53.500;10.020;2024-03-29T08:15:46;9.40;99.90
5743;DHT22;2896;53.500;10.020;2024-03-29T08:18:12;10.20;99.90
5743;DHT22;2896;53.500;10.020;2024-03-29T08:20:39;9.40;99.90
5743;DHT22;2896;53.500;10.020;2024-03-29T08:23:07;9.40;99.90
5743;DHT22;2896;53.500;10.020;2024-03-29T08:25:33;9.50;99.90
5743;DHT22;2896;53.500;10.020;2024-03-29T08:28:00;9.60;99.90
5743;DHT22;2896;53.500;10.020;2024-03-29T08:30:28;9.70;99.90
5743;DHT22;2896;53.500;10.020;2024-03-29T08:33:00;9.80;99.90
5743;DHT22;2896;53.500;10.020;2024-03-29T08:35:28;9.70;99.90
5743;DHT22;2896;53.500;10.020;2024-03-29T08:37:54;9.80;99.90
5743;DHT22;2896;53.500;10.020;2024-03-29T08:40:22;9.80;99.90
5743;DHT22;2896;53.500;10.020;2024-03-29T08:42:49;9.80;99.90
5743;DHT22;2896;53.500;10.020;2024-03-29T08:45:16;9.80;99.90
5743;DHT22;2896;53.500;10.020;2024-03-29T08:47:42;9.90;99.90
5743;DHT22;2896;53.500;10.020;2024-03-29T08:50:09;9.90;99.90
5743;DHT22;2896;53.500;10.020;2024-03-29T08:52:36;9.90;99.90
5743;DHT22;2896;53.500;10.020;2024-03-29T08:55:04;10.00;99.90
5743;DHT22;2896;53.500;10.020;2024-03-29T08:57:32;10.10;99.90
5743;DHT22;2896;53.500;10.020;2024-03-29T08:59:59;10.10;99.90
5743;DHT22;2896;53.500;10.020;2024-03-29T09:02:26;10.20;99.90
5743;DHT22;2896;53.500;10.020;2024-03-29T09:04:53;10.70;99.90
5743;DHT22;2896;53.500;10.020;2024-03-29T09:07:19;10.30;99.90
5743;DHT22;2896;53.500;10.020;2024-03-29T09:09:48;10.40;99.90
5743;DHT22;2896;53.500;10.020;2024-03-29T09:14:45;10.50;99.90
5743;DHT22;2896;53.500;10.020;2024-03-29T09:17:11;10.50;99.90
5743;DHT22;2896;53.500;10.020;2024-03-29T09:19:38;10.50;99.90
5743;DHT22;2896;53.500;10.020;2024-03-29T09:22:05;10.50;99.90
5743;DHT22;2896;53.500;10.020;2024-03-29T09:24:32;10.60;99.90
5743;DHT22;2896;53.500;10.020;2024-03-29T09:26:59;10.50;99.90
5743;DHT22;2896;53.500;10.020;2024-03-29T09:29:26;10.40;99.90
5743;DHT22;2896;53.500;10.020;2024-03-29T09:31:54;10.30;99.90
5743;DHT22;2896;53.500;10.020;2024-03-29T09:34:21;10.10;99.90
5743;DHT22;2896;53.500;10.020;2024-03-29T09:36:48;10.20;99.90
5743;DHT22;2896;53.500;10.020;2024-03-29T09:39:15;10.10;99.90
5743;DHT22;2896;53.500;10.020;2024-03-29T09:41:44;10.00;99.90
5743;DHT22;2896;53.500;10.020;2024-03-29T09:44:11;10.10;99.90
5743;DHT22;2896;53.500;10.020;2024-03-29T09:46:38;10.10;99.90
5743;DHT22;2896;53.500;10.020;2024-03-29T09:49:07;10.20;99.90
5743;DHT22;2896;53.500;10.020;2024-03-29T09:51:34;10.20;99.90
5743;DHT22;2896;53.500;10.020;2024-03-29T09:54:03;10.20;99.90
5743;DHT22;2896;53.500;10.020;2024-03-29T09:56:33;10.20;99.90
5743;DHT22;2896;53.500;10.020;2024-03-29T10:01:30;10.30;99.90
5743;DHT22;2896;53.500;10.020;2024-03-29T10:03:59;10.20;99.90
5743;DHT22;2896;53.500;10.020;2024-03-29T10:06:28;10.20;99.90
5743;DHT22;2896;53.500;10.020;2024-03-29T10:08:56;10.20;99.90
5743;DHT22;2896;53.500;10.020;2024-03-29T10:11:23;10.30;99.90
5743;DHT22;2896;53.500;10.020;2024-03-29T10:13:50;10.20;99.90
5743;DHT22;2896;53.500;10.020;2024-03-29T10:16:18;10.30;99.90
5743;DHT22;2896;53.500;10.020;2024-03-29T10:18:47;10.40;99.90
5743;DHT22;2896;53.500;10.020;2024-03-29T10:21:14;10.40;99.90
5743;DHT22;2896;53.500;10.020;2024-03-29T10:23:43;10.40;99.90
5743;DHT22;2896;53.500;10.020;2024-03-29T10:26:12;10.30;99.90
5743;DHT22;2896;53.500;10.020;2024-03-29T10:28:39;10.20;99.90
5743;DHT22;2896;53.500;10.020;2024-03-29T10:31:06;10.30;99.90
5743;DHT22;2896;53.500;10.020;2024-03-29T10:33:33;10.30;99.90
5743;DHT22;2896;53.500;10.020;2024-03-29T10:36:01;10.30;99.90
5743;DHT22;2896;53.500;10.020;2024-03-29T10:38:30;10.40;99.90
5743;DHT22;2896;53.500;10.020;2024-03-29T10:40:58;10.70;99.90
5743;DHT22;2896;53.500;10.020;2024-03-29T10:43:27;10.30;99.90
5743;DHT22;2896;53.500;10.020;2024-03-29T10:45:55;10.30;99.90
5743;DHT22;2896;53.500;10.020;2024-03-29T10:48:25;10.40;99.90
5743;DHT22;2896;53.500;10.020;2024-03-29T10:50:54;10.50;99.90
5743;DHT22;2896;53.500;10.020;2024-03-29T10:53:22;10.60;99.90
5743;DHT22;2896;53.500;10.020;2024-03-29T10:55:51;13.30;99.90
5743;DHT22;2896;53.500;10.020;2024-03-29T10:58:22;10.70;99.90
5743;DHT22;2896;53.500;10.020;2024-03-29T11:00:55;10.60;99.90
5743;DHT22;2896;53.500;10.020;2024-03-29T11:03:28;10.60;99.90
5743;DHT22;2896;53.500;10.020;2024-03-29T11:06:02;10.70;99.90
5743;DHT22;2896;53.500;10.020;2024-03-29T11:08:31;10.70;99.90
5743;DHT22;2896;53.500;10.020;2024-03-29T11:11:02;10.70;99.90
5743;DHT22;2896;53.500;10.020;2024-03-29T11:13:33;10.80;99.90
5743;DHT22;2896;53.500;10.020;2024-03-29T11:16:01;10.90;99.90
5743;DHT22;2896;53.500;10.020;2024-03-29T11:18:29;10.90;99.90
5743;DHT22;2896;53.500;10.020;2024-03-29T11:20:57;10.80;99.90
5743;DHT22;2896;53.500;10.020;2024-03-29T11:23:25;10.90;99.90
5743;DHT22;2896;53.500;10.020;2024-03-29T11:25:53;11.00;99.90
5743;DHT22;2896;53.500;10.020;2024-03-29T11:28:25;11.20;99.90
5743;DHT22;2896;53.500;10.020;2024-03-29T11:30:59;11.40;99.90
5743;DHT22;2896;53.500;10.020;2024-03-29T11:33:27;11.70;99.90
5743;DHT22;2896;53.500;10.020;2024-03-29T11:35:54;11.90;99.90
5743;DHT22;2896;53.500;10.020;2024-03-29T11:38:21;12.10;99.90
5743;DHT22;2896;53.500;10.020;2024-03-29T11:41:01;12.00;99.90
5743;DHT22;2896;53.500;10.020;2024-03-29T11:43:28;12.00;99.90
5743;DHT22;2896;53.500;10.020;2024-03-29T11:45:58;11.90;99.90
5743;DHT22;2896;53.500;10.020;2024-03-29T11:48:26;12.00;99.90
5743;DHT22;2896;53.500;10.020;2024-03-29T11:50:53;12.10;99.90
5743;DHT22;2896;53.500;10.020;2024-03-29T11:53:20;12.20;99.90
5743;DHT22;2896;53.500;10.020;2024-03-29T11:55:47;12.40;99.90
5743;DHT22;2896;53.500;10.020;2024-03-29T11:58:18;12.30;99.90
5743;DHT22;2896;53.500;10.020;2024-03-29T12:00:45;12.60;99.90
5743;DHT22;2896;53.500;10.020;2024-03-29T12:03:15;12.60;99.90
5743;DHT22;2896;53.500;10.020;2024-03-29T12:05:42;12.60;99.90
5743;DHT22;2896;53.500;10.020;2024-03-29T12:08:09;12.50;99.90
5743;DHT22;2896;53.500;10.020;2024-03-29T12:10:36;12.60;99.90
5743;DHT22;2896;53.500;10.020;2024-03-29T12:13:04;12.70;99.90
5743;DHT22;2896;53.500;10.020;2024-03-29T12:15:31;12.70;99.90
5743;DHT22;2896;53.500;10.020;2024-03-29T12:17:58;12.60;99.90
5743;DHT22;2896;53.500;10.020;2024-03-29T12:20:28;13.10;99.90
5743;DHT22;2896;53.500;10.020;2024-03-29T12:22:56;13.50;99.90
5743;DHT22;2896;53.500;10.020;2024-03-29T12:25:22;13.90;99.90
5743;DHT22;2896;53.500;10.020;2024-03-29T12:27:49;14.10;1.00
5743;DHT22;2896;53.500;10.020;2024-03-29T12:30:16;14.10;1.00
5743;DHT22;2896;53.500;10.020;2024-03-29T12:32:44;14.10;1.00
5743;DHT22;2896;53.500;10.020;2024-03-29T12:35:12;14.20;1.00
5743;DHT22;2896;53.500;10.020;2024-03-29T12:37:47;14.10;1.00
5743;DHT22;2896;53.500;10.020;2024-03-29T12:40:16;14.20;1.00
5743;DHT22;2896;53.500;10.020;2024-03-29T12:42:47;14.00;1.00
5743;DHT22;2896;53.500;10.020;2024-03-29T12:45:14;14.00;1.00
5743;DHT22;2896;53.500;10.020;2024-03-29T12:47:41;14.00;1.00
5743;DHT22;2896;53.500;10.020;2024-03-29T12:50:09;13.90;1.00
5743;DHT22;2896;53.500;10.020;2024-03-29T12:52:40;13.80;1.00
5743;DHT22;2896;53.500;10.020;2024-03-29T12:55:08;13.90;1.00
5743;DHT22;2896;53.500;10.020;2024-03-29T12:57:35;13.90;1.00
5743;DHT22;2896;53.500;10.020;2024-03-29T13:00:03;13.90;1.00
5743;DHT22;2896;53.500;10.020;2024-03-29T13:02:34;13.90;1.00
5743;DHT22;2896;53.500;10.020;2024-03-29T13:05:01;13.90;1.00
5743;DHT22;2896;53.500;10.020;2024-03-29T13:07:28;14.00;1.00
5743;DHT22;2896;53.500;10.020;2024-03-29T13:09:56;14.20;1.00
5743;DHT22;2896;53.500;10.020;2024-03-29T13:12:24;14.30;1.00
5743;DHT22;2896;53.500;10.020;2024-03-29T13:14:52;14.40;1.00
5743;DHT22;2896;53.500;10.020;2024-03-29T13:17:19;17.20;1.00
5743;DHT22;2896;53.500;10.020;2024-03-29T13:19:46;14.50;1.00
5743;DHT22;2896;53.500;10.020;2024-03-29T13:22:13;14.40;1.00
5743;DHT22;2896;53.500;10.020;2024-03-29T13:24:39;14.40;1.00
5743;DHT22;2896;53.500;10.020;2024-03-29T13:27:07;14.50;1.00
5743;DHT22;2896;53.500;10.020;2024-03-29T13:29:34;14.40;1.00
5743;DHT22;2896;53.500;10.020;2024-03-29T13:32:00;14.10;1.00
5743;DHT22;2896;53.500;10.020;2024-03-29T13:34:27;14.00;1.00
5743;DHT22;2896;53.500;10.020;2024-03-29T13:36:54;13.90;1.00
5743;DHT22;2896;53.500;10.020;2024-03-29T13:39:20;13.70;1.00
5743;DHT22;2896;53.500;10.020;2024-03-29T13:41:48;13.70;1.00
5743;DHT22;2896;53.500;10.020;2024-03-29T13:44:16;13.70;1.00
5743;DHT22;2896;53.500;10.020;2024-03-29T13:46:43;13.90;1.00
5743;DHT22;2896;53.500;10.020;2024-03-29T13:49:10;14.10;1.00
5743;DHT22;2896;53.500;10.020;2024-03-29T13:51:37;14.50;1.00
5743;DHT22;2896;53.500;10.020;2024-03-29T13:54:04;14.60;1.00
5743;DHT22;2896;53.500;10.020;2024-03-29T13:56:31;14.90;1.00
5743;DHT22;2896;53.500;10.020;2024-03-29T13:58:58;15.30;1.00
5743;DHT22;2896;53.500;10.020;2024-03-29T14:01:28;15.50;99.90
5743;DHT22;2896;53.500;10.020;2024-03-29T14:03:55;15.40;99.90
5743;DHT22;2896;53.500;10.020;2024-03-29T14:06:22;15.90;1.00
5743;DHT22;2896;53.500;10.020;2024-03-29T14:08:48;15.80;99.90
5743;DHT22;2896;53.500;10.020;2024-03-29T14:11:14;15.40;99.90
5743;DHT22;2896;53.500;10.020;2024-03-29T14:13:43;15.20;99.90
5743;DHT22;2896;53.500;10.020;2024-03-29T14:16:13;15.20;99.90
5743;DHT22;2896;53.500;10.020;2024-03-29T14:18:41;15.30;99.90
5743;DHT22;2896;53.500;10.020;2024-03-29T14:21:07;15.40;99.90
5743;DHT22;2896;53.500;10.020;2024-03-29T14:23:34;15.40;99.90
5743;DHT22;2896;53.500;10.020;2024-03-29T14:26:00;15.40;99.90
5743;DHT22;2896;53.500;10.020;2024-03-29T14:28:27;16.30;99.90
5743;DHT22;2896;53.500;10.020;2024-03-29T14:30:54;16.80;99.90
5743;DHT22;2896;53.500;10.020;2024-03-29T14:33:20;16.70;99.90
5743;DHT22;2896;53.500;10.020;2024-03-29T14:35:48;16.80;99.90
5743;DHT22;2896;53.500;10.020;2024-03-29T14:38:15;17.30;99.90
5743;DHT22;2896;53.500;10.020;2024-03-29T14:40:42;17.50;99.90
5743;DHT22;2896;53.500;10.020;2024-03-29T14:43:09;17.60;99.90
5743;DHT22;2896;53.500;10.020;2024-03-29T14:45:35;17.40;99.90
5743;DHT22;2896;53.500;10.020;2024-03-29T14:48:02;16.90;99.90
5743;DHT22;2896;53.500;10.020;2024-03-29T14:50:29;17.10;99.90
5743;DHT22;2896;53.500;10.020;2024-03-29T14:52:57;17.40;99.90
5743;DHT22;2896;53.500;10.020;2024-03-29T14:55:24;17.30;99.90
5743;DHT22;2896;53.500;10.020;2024-03-29T14:57:51;17.40;99.90
5743;DHT22;2896;53.500;10.020;2024-03-29T15:00:19;17.40;99.90
5743;DHT22;2896;53.500;10.020;2024-03-29T15:02:48;17.70;99.90
5743;DHT22;2896;53.500;10.020;2024-03-29T15:05:14;17.40;99.90
5743;DHT22;2896;53.500;10.020;2024-03-29T15:07:41;17.00;99.90
5743;DHT22;2896;53.500;10.020;2024-03-29T15:10:09;16.50;99.90
5743;DHT22;2896;53.500;10.020;2024-03-29T15:12:36;16.10;99.90
5743;DHT22;2896;53.500;10.020;2024-03-29T15:15:03;16.00;99.90
5743;DHT22;2896;53.500;10.020;2024-03-29T15:17:30;15.90;99.90
5743;DHT22;2896;53.500;10.020;2024-03-29T15:19:56;15.40;99.90
5743;DHT22;2896;53.500;10.020;2024-03-29T15:22:23;15.30;99.90
5743;DHT22;2896;53.500;10.020;2024-03-29T15:24:50;15.50;99.90
5743;DHT22;2896;53.500;10.020;2024-03-29T15:27:20;15.90;99.90
5743;DHT22;2896;53.500;10.020;2024-03-29T15:30:13;16.00;99.90
5743;DHT22;2896;53.500;10.020;2024-03-29T15:32:39;16.20;99.90
5743;DHT22;2896;53.500;10.020;2024-03-29T15:35:06;16.00;99.90
5743;DHT22;2896;53.500;10.020;2024-03-29T15:37:33;15.90;99.90
5743;DHT22;2896;53.500;10.020;2024-03-29T15:40:00;15.80;99.90
5743;DHT22;2896;53.500;10.020;2024-03-29T15:42:28;15.70;99.90
5743;DHT22;2896;53.500;10.020;2024-03-29T15:44:55;15.70;99.90
5743;DHT22;2896;53.500;10.020;2024-03-29T15:47:22;15.60;99.90
5743;DHT22;2896;53.500;10.020;2024-03-29T15:49:48;15.30;99.90
5743;DHT22;2896;53.500;10.020;2024-03-29T15:52:15;15.30;99.90
5743;DHT22;2896;53.500;10.020;2024-03-29T15:54:41;15.10;99.90
5743;DHT22;2896;53.500;10.020;2024-03-29T15:57:08;15.00;99.90
5743;DHT22;2896;53.500;10.020;2024-03-29T15:59:37;14.90;99.90
5743;DHT22;2896;53.500;10.020;2024-03-29T16:02:03;14.80;99.90
5743;DHT22;2896;53.500;10.020;2024-03-29T16:04:30;14.70;99.90
5743;DHT22;2896;53.500;10.020;2024-03-29T16:06:57;14.70;99.90
5743;DHT22;2896;53.500;10.020;2024-03-29T16:09:23;14.70;99.90
5743;DHT22;2896;53.500;10.020;2024-03-29T16:11:51;14.90;99.90